sensor_id;sensor_type;location;lat;lon;timestamp;temperature;humidity
16140;DHT22;8175;49.326;12.690;2024-01-10T00:01:23;-5.70;99.90
16140;DHT22;8175;49.326;12.690;2024-01-10T00:03:55;-5.70;99.90
16140;DHT22;8175;49.326;12.690;2024-01-10T00:06:21;-5.70;99.90
16140;DHT22;8175;49.326;12.690;2024-01-10T00:08:47;-5.90;99.90
16140;DHT22;8175;49.326;12.690;2024-01-10T00:11:12;-5.90;99.90
16140;DHT22;8175;49.326;12.690;2024-01-10T00:13:38;-5.90;99.90
16140;DHT22;8175;49.326;12.690;2024-01-10T00:16:04;-5.90;99.90
16140;DHT22;8175;49.326;12.690;2024-01-10T00:18:30;-6.00;99.90
16140;DHT22;8175;49.326;12.690;2024-01-10T00:20:56;-6.10;99.90
16140;DHT22;8175;49.326;12.690;2024-01-10T00:23:22;-6.20;99.90
16140;DHT22;8175;49.326;12.690;2024-01-10T00:25:48;-6.20;99.90
16140;DHT22;8175;49.326;12.690;2024-01-10T00:28:14;-6.30;99.90
16140;DHT22;8175;49.326;12.690;2024-01-10T00:30:43;-6.50;99.90
16140;DHT22;8175;49.326;12.690;2024-01-10T00:33:09;-6.50;99.90
16140;DHT22;8175;49.326;12.690;2024-01-10T00:35:35;-6.50;99.90
16140;DHT22;8175;49.326;12.690;2024-01-10T00:38:00;-6.40;99.90
16140;DHT22;8175;49.326;12.690;2024-01-10T00:40:26;-6.30;99.90
16140;DHT22;8175;49.326;12.690;2024-01-10T00:42:52;-6.30;99.90
16140;DHT22;8175;49.326;12.690;2024-01-10T00:45:17;-6.20;99.90
16140;DHT22;8175;49.326;12.690;2024-01-10T00:47:43;-6.10;99.90
16140;DHT22;8175;49.326;12.690;2024-01-10T00:50:08;-5.70;99.90
16140;DHT22;8175;49.326;12.690;2024-01-10T00:52:34;-5.80;99.90
16140;DHT22;8175;49.326;12.690;2024-01-10T00:55:00;-6.00;99.90
16140;DHT22;8175;49.326;12.690;2024-01-10T00:57:26;-6.10;99.90
16140;DHT22;8175;49.326;12.690;2024-01-10T00:59:51;-6.20;99.90
16140;DHT22;8175;49.326;12.690;2024-01-10T01:02:17;-6.20;99.90
16140;DHT22;8175;49.326;12.690;2024-01-10T01:04:43;-6.10;99.90
16140;DHT22;8175;49.326;12.690;2024-01-10T01:07:08;-6.30;99.90
16140;DHT22;8175;49.326;12.690;2024-01-10T01:09:34;-6.30;99.90
16140;DHT22;8175;49.326;12.690;2024-01-10T01:12:00;-6.50;99.90
16140;DHT22;8175;49.326;12.690;2024-01-10T01:14:25;-6.60;99.90
16140;DHT22;8175;49.326;12.690;2024-01-10T01:16:51;-6.70;99.90
16140;DHT22;8175;49.326;12.690;2024-01-10T01:19:17;-6.70;99.90
16140;DHT22;8175;49.326;12.690;2024-01-10T01:21:43;-6.70;99.90
16140;DHT22;8175;49.326;12.690;2024-01-10T01:24:09;-6.90;99.90
16140;DHT22;8175;49.326;12.690;2024-01-10T01:26:34;-7.00;99.90
16140;DHT22;8175;49.326;12.690;2024-01-10T01:29:00;-7.20;99.90
16140;DHT22;8175;49.326;12.690;2024-01-10T01:31:26;-7.30;99.90
16140;DHT22;8175;49.326;12.690;2024-01-10T01:33:51;-7.40;99.90
16140;DHT22;8175;49.326;12.690;2024-01-10T01:36:17;-7.30;99.90
16140;DHT22;8175;49.326;12.690;2024-01-10T01:38:43;-7.30;99.90
16140;DHT22;8175;49.326;12.690;2024-01-10T01:41:09;-7.20;99.90
16140;DHT22;8175;49.326;12.690;2024-01-10T01:43:34;-7.20;99.90
16140;DHT22;8175;49.326;12.690;2024-01-10T01:46:01;-7.10;99.90
16140;DHT22;8175;49.326;12.690;2024-01-10T01:48:28;-7.10;99.90
16140;DHT22;8175;49.326;12.690;2024-01-10T01:50:58;-7.20;99.90
16140;DHT22;8175;49.326;12.690;2024-01-10T01:53:25;-7.30;99.90
16140;DHT22;8175;49.326;12.690;2024-01-10T01:55:52;-7.40;99.90
16140;DHT22;8175;49.326;12.690;2024-01-10T01:58:19;-7.40;99.90
16140;DHT22;8175;49.326;12.690;2024-01-10T02:00:46;-7.40;99.90
16140;DHT22;8175;49.326;12.690;2024-01-10T02:03:11;-7.40;99.90
16140;DHT22;8175;49.326;12.690;2024-01-10T02:05:37;-7.50;99.90
16140;DHT22;8175;49.326;12.690;2024-01-10T02:08:03;-7.50;99.90
16140;DHT22;8175;49.326;12.690;2024-01-10T02:10:29;-7.60;99.90
16140;DHT22;8175;49.326;12.690;2024-01-10T02:12:55;-7.70;99.90
16140;DHT22;8175;49.326;12.690;2024-01-10T02:15:20;-7.70;99.90
16140;DHT22;8175;49.326;12.690;2024-01-10T02:17:46;-7.80;99.90
16140;DHT22;8175;49.326;12.690;2024-01-10T02:20:13;-7.90;99.90
16140;DHT22;8175;49.326;12.690;2024-01-10T02:22:39;-8.00;99.90
16140;DHT22;8175;49.326;12.690;2024-01-10T02:25:09;-8.10;99.90
16140;DHT22;8175;49.326;12.690;2024-01-10T02:27:36;-8.20;99.90
16140;DHT22;8175;49.326;12.690;2024-01-10T02:30:03;-8.30;99.90
16140;DHT22;8175;49.326;12.690;2024-01-10T02:32:29;-8.40;99.90
16140;DHT22;8175;49.326;12.690;2024-01-10T02:34:54;-8.40;99.90
16140;DHT22;8175;49.326;12.690;2024-01-10T02:37:20;-8.40;99.90
16140;DHT22;8175;49.326;12.690;2024-01-10T02:39:46;-8.40;99.90
16140;DHT22;8175;49.326;12.690;2024-01-10T02:42:11;-8.50;99.90
16140;DHT22;8175;49.326;12.690;2024-01-10T02:44:37;-8.50;99.90
16140;DHT22;8175;49.326;12.690;2024-01-10T02:47:03;-8.60;99.90
16140;DHT22;8175;49.326;12.690;2024-01-10T02:49:29;-8.60;99.90
16140;DHT22;8175;49.326;12.690;2024-01-10T02:51:55;-8.60;99.90
16140;DHT22;8175;49.326;12.690;2024-01-10T02:54:20;-8.70;99.90
16140;DHT22;8175;49.326;12.690;2024-01-10T02:56:46;-8.70;99.90
16140;DHT22;8175;49.326;12.690;2024-01-10T02:59:11;-8.70;99.90
16140;DHT22;8175;49.326;12.690;2024-01-10T03:01:37;-8.70;99.90
16140;DHT22;8175;49.326;12.690;2024-01-10T03:04:03;-8.60;99.90
16140;DHT22;8175;49.326;12.690;2024-01-10T03:06:28;-8.60;99.90
16140;DHT22;8175;49.326;12.690;2024-01-10T03:08:55;-8.50;99.90
16140;DHT22;8175;49.326;12.690;2024-01-10T03:11:21;-8.50;99.90
16140;DHT22;8175;49.326;12.690;2024-01-10T03:13:47;-8.40;99.90
16140;DHT22;8175;49.326;12.690;2024-01-10T03:16:14;-8.50;99.90
16140;DHT22;8175;49.326;12.690;2024-01-10T03:18:39;-8.60;99.90
16140;DHT22;8175;49.326;12.690;2024-01-10T03:21:05;-8.70;99.90
16140;DHT22;8175;49.326;12.690;2024-01-10T03:23:31;-8.70;99.90
16140;DHT22;8175;49.326;12.690;2024-01-10T03:25:57;-8.80;99.90
16140;DHT22;8175;49.326;12.690;2024-01-10T03:28:23;-8.80;99.90
16140;DHT22;8175;49.326;12.690;2024-01-10T03:30:49;-8.90;99.90
16140;DHT22;8175;49.326;12.690;2024-01-10T03:33:15;-9.00;99.90
16140;DHT22;8175;49.326;12.690;2024-01-10T03:35:41;-9.10;99.90
16140;DHT22;8175;49.326;12.690;2024-01-10T03:38:07;-9.10;99.90
16140;DHT22;8175;49.326;12.690;2024-01-10T03:40:33;-9.10;99.90
16140;DHT22;8175;49.326;12.690;2024-01-10T03:42:59;-9.10;99.90
16140;DHT22;8175;49.326;12.690;2024-01-10T03:45:24;-9.10;99.90
16140;DHT22;8175;49.326;12.690;2024-01-10T03:47:50;-9.10;99.90
16140;DHT22;8175;49.326;12.690;2024-01-10T03:50:20;-9.10;99.90
16140;DHT22;8175;49.326;12.690;2024-01-10T03:52:46;-9.10;99.90
16140;DHT22;8175;49.326;12.690;2024-01-10T03:55:12;-9.10;99.90
16140;DHT22;8175;49.326;12.690;2024-01-10T03:57:39;-9.20;99.90
16140;DHT22;8175;49.326;12.690;2024-01-10T04:00:05;-9.30;99.90
16140;DHT22;8175;49.326;12.690;2024-01-10T04:02:36;-9.20;99.90
16140;DHT22;8175;49.326;12.690;2024-01-10T04:05:06;-9.30;99.90
16140;DHT22;8175;49.326;12.690;2024-01-10T04:07:33;-9.30;99.90
16140;DHT22;8175;49.326;12.690;2024-01-10T04:09:58;-9.20;99.90
16140;DHT22;8175;49.326;12.690;2024-01-10T04:12:24;-9.20;99.90
16140;DHT22;8175;49.326;12.690;2024-01-10T04:14:49;-9.20;99.90
16140;DHT22;8175;49.326;12.690;2024-01-10T04:17:15;-9.20;99.90
16140;DHT22;8175;49.326;12.690;2024-01-10T04:19:41;-9.30;99.90
16140;DHT22;8175;49.326;12.690;2024-01-10T04:22:06;-9.30;99.90
16140;DHT22;8175;49.326;12.690;2024-01-10T04:24:32;-9.30;99.90
16140;DHT22;8175;49.326;12.690;2024-01-10T04:26:58;-9.30;99.90
16140;DHT22;8175;49.326;12.690;2024-01-10T04:29:23;-9.30;99.90
16140;DHT22;8175;49.326;12.690;2024-01-10T04:31:49;-9.10;99.90
16140;DHT22;8175;49.326;12.690;2024-01-10T04:34:15;-9.10;99.90
16140;DHT22;8175;49.326;12.690;2024-01-10T04:36:41;-9.00;99.90
16140;DHT22;8175;49.326;12.690;2024-01-10T04:39:06;-9.10;99.90
16140;DHT22;8175;49.326;12.690;2024-01-10T04:41:32;-9.10;99.90
16140;DHT22;8175;49.326;12.690;2024-01-10T04:43:58;-9.20;99.90
16140;DHT22;8175;49.326;12.690;2024-01-10T04:46:23;-9.10;99.90
16140;DHT22;8175;49.326;12.690;2024-01-10T04:48:49;-9.20;99.90
16140;DHT22;8175;49.326;12.690;2024-01-10T04:51:14;-9.30;99.90
16140;DHT22;8175;49.326;12.690;2024-01-10T04:53:40;-9.30;99.90
16140;DHT22;8175;49.326;12.690;2024-01-10T04:56:06;-9.40;99.90
16140;DHT22;8175;49.326;12.690;2024-01-10T04:58:31;-9.60;99.90
16140;DHT22;8175;49.326;12.690;2024-01-10T05:00:58;-9.60;99.90
16140;DHT22;8175;49.326;12.690;2024-01-10T05:03:24;-9.50;99.90
16140;DHT22;8175;49.326;12.690;2024-01-10T05:05:49;-9.50;99.90
16140;DHT22;8175;49.326;12.690;2024-01-10T05:08:15;-9.50;99.90
16140;DHT22;8175;49.326;12.690;2024-01-10T05:10:41;-9.50;99.90
16140;DHT22;8175;49.326;12.690;2024-01-10T05:13:06;-9.50;99.90
16140;DHT22;8175;49.326;12.690;2024-01-10T05:15:32;-9.60;99.90
16140;DHT22;8175;49.326;12.690;2024-01-10T05:17:58;-9.70;99.90
16140;DHT22;8175;49.326;12.690;2024-01-10T05:20:23;-9.60;99.90
16140;DHT22;8175;49.326;12.690;2024-01-10T05:22:49;-9.60;99.90
16140;DHT22;8175;49.326;12.690;2024-01-10T05:25:15;-9.60;99.90
16140;DHT22;8175;49.326;12.690;2024-01-10T05:27:43;-9.50;99.90
16140;DHT22;8175;49.326;12.690;2024-01-10T05:30:09;-9.50;99.90
16140;DHT22;8175;49.326;12.690;2024-01-10T05:32:38;-9.50;99.90
16140;DHT22;8175;49.326;12.690;2024-01-10T05:35:04;-9.50;99.90
16140;DHT22;8175;49.326;12.690;2024-01-10T05:37:30;-9.40;99.90
16140;DHT22;8175;49.326;12.690;2024-01-10T05:39:56;-9.50;99.90
16140;DHT22;8175;49.326;12.690;2024-01-10T05:42:21;-9.50;99.90
16140;DHT22;8175;49.326;12.690;2024-01-10T05:44:47;-9.50;99.90
16140;DHT22;8175;49.326;12.690;2024-01-10T05:47:13;-9.50;99.90
16140;DHT22;8175;49.326;12.690;2024-01-10T05:49:38;-9.50;99.90
16140;DHT22;8175;49.326;12.690;2024-01-10T05:52:04;-9.60;99.90
16140;DHT22;8175;49.326;12.690;2024-01-10T05:54:30;-9.60;99.90
16140;DHT22;8175;49.326;12.690;2024-01-10T05:56:55;-9.60;99.90
16140;DHT22;8175;49.326;12.690;2024-01-10T05:59:21;-9.40;99.90
16140;DHT22;8175;49.326;12.690;2024-01-10T06:01:47;-9.50;99.90
16140;DHT22;8175;49.326;12.690;2024-01-10T06:04:12;-9.60;99.90
16140;DHT22;8175;49.326;12.690;2024-01-10T06:06:38;-9.60;99.90
16140;DHT22;8175;49.326;12.690;2024-01-10T06:09:03;-9.60;99.90
16140;DHT22;8175;49.326;12.690;2024-01-10T06:11:30;-9.70;99.90
16140;DHT22;8175;49.326;12.690;2024-01-10T06:13:55;-9.70;99.90
16140;DHT22;8175;49.326;12.690;2024-01-10T06:16:23;-9.70;99.90
16140;DHT22;8175;49.326;12.690;2024-01-10T06:18:48;-9.70;99.90
16140;DHT22;8175;49.326;12.690;2024-01-10T06:21:14;-9.60;99.90
16140;DHT22;8175;49.326;12.690;2024-01-10T06:23:39;-9.50;99.90
16140;DHT22;8175;49.326;12.690;2024-01-10T06:26:05;-9.60;99.90
16140;DHT22;8175;49.326;12.690;2024-01-10T06:28:32;-9.70;99.90
16140;DHT22;8175;49.326;12.690;2024-01-10T06:30:57;-9.80;99.90
16140;DHT22;8175;49.326;12.690;2024-01-10T06:33:23;-9.80;99.90
16140;DHT22;8175;49.326;12.690;2024-01-10T06:35:49;-9.90;99.90
16140;DHT22;8175;49.326;12.690;2024-01-10T06:38:15;-9.90;99.90
16140;DHT22;8175;49.326;12.690;2024-01-10T06:40:42;-10.00;99.90
16140;DHT22;8175;49.326;12.690;2024-01-10T06:43:10;-9.90;99.90
16140;DHT22;8175;49.326;12.690;2024-01-10T06:45:35;-9.90;99.90
16140;DHT22;8175;49.326;12.690;2024-01-10T06:48:01;-9.80;99.90
16140;DHT22;8175;49.326;12.690;2024-01-10T06:50:26;-9.90;99.90
16140;DHT22;8175;49.326;12.690;2024-01-10T06:52:52;-9.80;99.90
16140;DHT22;8175;49.326;12.690;2024-01-10T06:55:18;-9.80;99.90
16140;DHT22;8175;49.326;12.690;2024-01-10T06:57:44;-9.70;99.90
16140;DHT22;8175;49.326;12.690;2024-01-10T07:00:10;-9.60;99.90
16140;DHT22;8175;49.326;12.690;2024-01-10T07:02:39;-9.60;99.90
16140;DHT22;8175;49.326;12.690;2024-01-10T07:05:08;-9.60;99.90
16140;DHT22;8175;49.326;12.690;2024-01-10T07:07:34;-9.60;99.90
16140;DHT22;8175;49.326;12.690;2024-01-10T07:10:03;-9.50;99.90
16140;DHT22;8175;49.326;12.690;2024-01-10T07:12:33;-9.50;99.90
16140;DHT22;8175;49.326;12.690;2024-01-10T07:14:59;-9.50;99.90
16140;DHT22;8175;49.326;12.690;2024-01-10T07:17:25;-9.50;99.90
16140;DHT22;8175;49.326;12.690;2024-01-10T07:19:50;-9.50;99.90
16140;DHT22;8175;49.326;12.690;2024-01-10T07:22:16;-9.40;99.90
16140;DHT22;8175;49.326;12.690;2024-01-10T07:24:43;-9.30;99.90
16140;DHT22;8175;49.326;12.690;2024-01-10T07:27:09;-9.40;99.90
16140;DHT22;8175;49.326;12.690;2024-01-10T07:29:35;-9.30;99.90
16140;DHT22;8175;49.326;12.690;2024-01-10T07:32:01;-9.40;99.90
16140;DHT22;8175;49.326;12.690;2024-01-10T07:34:26;-9.40;99.90
16140;DHT22;8175;49.326;12.690;2024-01-10T07:36:52;-9.40;99.90
16140;DHT22;8175;49.326;12.690;2024-01-10T07:39:19;-9.40;99.90
16140;DHT22;8175;49.326;12.690;2024-01-10T07:41:45;-9.40;99.90
16140;DHT22;8175;49.326;12.690;2024-01-10T07:44:11;-9.30;99.90
16140;DHT22;8175;49.326;12.690;2024-01-10T07:46:37;-9.30;99.90
16140;DHT22;8175;49.326;12.690;2024-01-10T07:49:06;-9.30;99.90
16140;DHT22;8175;49.326;12.690;2024-01-10T07:51:32;-9.20;99.90
16140;DHT22;8175;49.326;12.690;2024-01-10T07:53:58;-9.10;99.90
16140;DHT22;8175;49.326;12.690;2024-01-10T07:56:25;-9.00;99.90
16140;DHT22;8175;49.326;12.690;2024-01-10T07:58:50;-8.90;99.90
16140;DHT22;8175;49.326;12.690;2024-01-10T08:01:18;-8.90;99.90
16140;DHT22;8175;49.326;12.690;2024-01-10T08:03:43;-8.80;99.90
16140;DHT22;8175;49.326;12.690;2024-01-10T08:06:09;-8.70;99.90
16140;DHT22;8175;49.326;12.690;2024-01-10T08:08:37;-8.70;99.90
16140;DHT22;8175;49.326;12.690;2024-01-10T08:11:03;-8.70;99.90
16140;DHT22;8175;49.326;12.690;2024-01-10T08:13:29;-8.70;99.90
16140;DHT22;8175;49.326;12.690;2024-01-10T08:15:54;-8.60;99.90
16140;DHT22;8175;49.326;12.690;2024-01-10T08:18:20;-8.50;99.90
16140;DHT22;8175;49.326;12.690;2024-01-10T08:20:46;-8.50;99.90
16140;DHT22;8175;49.326;12.690;2024-01-10T08:23:11;-8.40;99.90
16140;DHT22;8175;49.326;12.690;2024-01-10T08:25:37;-8.30;99.90
16140;DHT22;8175;49.326;12.690;2024-01-10T08:28:03;-8.20;99.90
16140;DHT22;8175;49.326;12.690;2024-01-10T08:30:29;-8.00;99.90
16140;DHT22;8175;49.326;12.690;2024-01-10T08:32:55;-7.70;99.90
16140;DHT22;8175;49.326;12.690;2024-01-10T08:35:20;-7.20;99.90
16140;DHT22;8175;49.326;12.690;2024-01-10T08:37:46;-6.80;99.90
16140;DHT22;8175;49.326;12.690;2024-01-10T08:40:12;-6.40;99.90
16140;DHT22;8175;49.326;12.690;2024-01-10T08:42:43;-5.70;99.90
16140;DHT22;8175;49.326;12.690;2024-01-10T08:45:09;-5.40;99.90
16140;DHT22;8175;49.326;12.690;2024-01-10T08:47:36;-5.10;99.90
16140;DHT22;8175;49.326;12.690;2024-01-10T08:50:03;-4.60;99.90
16140;DHT22;8175;49.326;12.690;2024-01-10T08:52:31;-4.20;99.90
16140;DHT22;8175;49.326;12.690;2024-01-10T08:54:57;-4.00;99.90
16140;DHT22;8175;49.326;12.690;2024-01-10T08:57:23;-4.20;99.90
16140;DHT22;8175;49.326;12.690;2024-01-10T08:59:48;-4.00;99.90
16140;DHT22;8175;49.326;12.690;2024-01-10T09:02:14;-3.80;99.90
16140;DHT22;8175;49.326;12.690;2024-01-10T09:04:40;-4.10;99.90
16140;DHT22;8175;49.326;12.690;2024-01-10T09:07:07;-4.20;99.90
16140;DHT22;8175;49.326;12.690;2024-01-10T09:09:34;-4.20;99.90
16140;DHT22;8175;49.326;12.690;2024-01-10T09:12:00;-4.20;99.90
16140;DHT22;8175;49.326;12.690;2024-01-10T09:14:26;-4.10;99.90
16140;DHT22;8175;49.326;12.690;2024-01-10T09:16:51;-4.20;99.90
16140;DHT22;8175;49.326;12.690;2024-01-10T09:19:18;-4.20;99.90
16140;DHT22;8175;49.326;12.690;2024-01-10T09:21:43;-4.20;99.90
16140;DHT22;8175;49.326;12.690;2024-01-10T09:24:09;-4.20;99.90
16140;DHT22;8175;49.326;12.690;2024-01-10T09:26:36;-3.90;99.90
16140;DHT22;8175;49.326;12.690;2024-01-10T09:29:02;-3.50;99.90
16140;DHT22;8175;49.326;12.690;2024-01-10T09:31:28;-3.10;99.90
16140;DHT22;8175;49.326;12.690;2024-01-10T09:33:55;-2.60;99.90
16140;DHT22;8175;49.326;12.690;2024-01-10T09:36:20;-1.50;99.90
16140;DHT22;8175;49.326;12.690;2024-01-10T09:38:46;-0.60;99.90
16140;DHT22;8175;49.326;12.690;2024-01-10T09:41:12;0.70;99.90
16140;DHT22;8175;49.326;12.690;2024-01-10T09:43:38;1.70;91.10
16140;DHT22;8175;49.326;12.690;2024-01-10T09:46:07;2.70;80.70
16140;DHT22;8175;49.326;12.690;2024-01-10T09:48:32;3.40;65.00
16140;DHT22;8175;49.326;12.690;2024-01-10T09:50:59;4.30;57.50
16140;DHT22;8175;49.326;12.690;2024-01-10T09:53:26;4.80;52.60
16140;DHT22;8175;49.326;12.690;2024-01-10T09:55:52;4.80;50.80
16140;DHT22;8175;49.326;12.690;2024-01-10T09:58:23;4.90;50.50
16140;DHT22;8175;49.326;12.690;2024-01-10T10:00:49;4.80;50.10
16140;DHT22;8175;49.326;12.690;2024-01-10T10:03:17;4.80;49.10
16140;DHT22;8175;49.326;12.690;2024-01-10T10:05:44;4.80;49.40
16140;DHT22;8175;49.326;12.690;2024-01-10T10:08:14;4.70;49.00
16140;DHT22;8175;49.326;12.690;2024-01-10T10:10:50;5.40;50.80
16140;DHT22;8175;49.326;12.690;2024-01-10T10:13:29;6.20;47.00
16140;DHT22;8175;49.326;12.690;2024-01-10T10:16:02;6.40;44.70
16140;DHT22;8175;49.326;12.690;2024-01-10T10:18:29;7.30;43.90
16140;DHT22;8175;49.326;12.690;2024-01-10T10:21:24;8.00;42.30
16140;DHT22;8175;49.326;12.690;2024-01-10T10:24:02;7.90;39.40
16140;DHT22;8175;49.326;12.690;2024-01-10T10:26:34;8.20;37.30
16140;DHT22;8175;49.326;12.690;2024-01-10T10:29:00;8.10;38.30
16140;DHT22;8175;49.326;12.690;2024-01-10T10:31:26;8.60;36.60
16140;DHT22;8175;49.326;12.690;2024-01-10T10:33:52;8.20;35.60
16140;DHT22;8175;49.326;12.690;2024-01-10T10:36:19;8.60;35.00
16140;DHT22;8175;49.326;12.690;2024-01-10T10:38:47;8.00;36.00
16140;DHT22;8175;49.326;12.690;2024-01-10T10:41:15;7.10;36.70
16140;DHT22;8175;49.326;12.690;2024-01-10T10:43:41;6.40;37.30
16140;DHT22;8175;49.326;12.690;2024-01-10T10:46:09;6.80;38.90
16140;DHT22;8175;49.326;12.690;2024-01-10T10:48:37;7.10;38.10
16140;DHT22;8175;49.326;12.690;2024-01-10T10:53:36;8.20;35.70
16140;DHT22;8175;49.326;12.690;2024-01-10T10:56:03;8.30;34.10
16140;DHT22;8175;49.326;12.690;2024-01-10T10:58:39;8.10;34.00
16140;DHT22;8175;49.326;12.690;2024-01-10T11:01:07;7.50;34.60
16140;DHT22;8175;49.326;12.690;2024-01-10T11:03:37;7.40;34.80
16140;DHT22;8175;49.326;12.690;2024-01-10T11:06:04;8.20;37.10
16140;DHT22;8175;49.326;12.690;2024-01-10T11:08:44;8.50;34.10
16140;DHT22;8175;49.326;12.690;2024-01-10T11:11:45;8.70;34.60
16140;DHT22;8175;49.326;12.690;2024-01-10T11:14:27;9.00;34.60
16140;DHT22;8175;49.326;12.690;2024-01-10T11:25:45;9.60;33.40
16140;DHT22;8175;49.326;12.690;2024-01-10T11:28:12;9.80;32.00
16140;DHT22;8175;49.326;12.690;2024-01-10T11:30:49;10.50;28.60
16140;DHT22;8175;49.326;12.690;2024-01-10T11:33:31;9.50;32.10
16140;DHT22;8175;49.326;12.690;2024-01-10T11:36:16;9.00;32.90
16140;DHT22;8175;49.326;12.690;2024-01-10T11:41:36;9.10;32.10
16140;DHT22;8175;49.326;12.690;2024-01-10T11:46:43;9.30;32.10
16140;DHT22;8175;49.326;12.690;2024-01-10T11:49:12;8.80;31.30
16140;DHT22;8175;49.326;12.690;2024-01-10T11:51:40;8.50;32.20
16140;DHT22;8175;49.326;12.690;2024-01-10T11:54:07;8.60;32.40
16140;DHT22;8175;49.326;12.690;2024-01-10T11:56:40;8.50;32.40
16140;DHT22;8175;49.326;12.690;2024-01-10T12:01:35;8.40;33.80
16140;DHT22;8175;49.326;12.690;2024-01-10T12:04:02;8.80;33.40
16140;DHT22;8175;49.326;12.690;2024-01-10T12:06:30;8.90;32.40
16140;DHT22;8175;49.326;12.690;2024-01-10T12:08:57;9.00;33.00
16140;DHT22;8175;49.326;12.690;2024-01-10T12:11:23;9.50;32.50
16140;DHT22;8175;49.326;12.690;2024-01-10T12:13:49;9.40;32.70
16140;DHT22;8175;49.326;12.690;2024-01-10T12:16:15;9.40;31.90
16140;DHT22;8175;49.326;12.690;2024-01-10T12:18:42;10.30;29.40
16140;DHT22;8175;49.326;12.690;2024-01-10T12:21:07;9.70;30.00
16140;DHT22;8175;49.326;12.690;2024-01-10T12:23:38;8.40;31.40
16140;DHT22;8175;49.326;12.690;2024-01-10T12:26:07;8.30;33.00
16140;DHT22;8175;49.326;12.690;2024-01-10T12:28:37;8.50;33.30
16140;DHT22;8175;49.326;12.690;2024-01-10T12:31:06;8.40;32.50
16140;DHT22;8175;49.326;12.690;2024-01-10T12:33:38;8.50;33.50
16140;DHT22;8175;49.326;12.690;2024-01-10T12:36:09;9.00;32.40
16140;DHT22;8175;49.326;12.690;2024-01-10T12:38:36;8.90;31.60
16140;DHT22;8175;49.326;12.690;2024-01-10T12:41:03;8.80;32.40
16140;DHT22;8175;49.326;12.690;2024-01-10T12:43:29;8.00;32.20
16140;DHT22;8175;49.326;12.690;2024-01-10T12:46:08;8.10;33.60
16140;DHT22;8175;49.326;12.690;2024-01-10T12:48:41;8.80;32.30
16140;DHT22;8175;49.326;12.690;2024-01-10T12:51:11;9.00;33.20
16140;DHT22;8175;49.326;12.690;2024-01-10T12:53:43;8.40;33.00
16140;DHT22;8175;49.326;12.690;2024-01-10T12:56:10;8.60;33.50
16140;DHT22;8175;49.326;12.690;2024-01-10T12:58:40;8.20;33.20
16140;DHT22;8175;49.326;12.690;2024-01-10T13:01:09;8.00;34.40
16140;DHT22;8175;49.326;12.690;2024-01-10T13:03:35;7.10;35.90
16140;DHT22;8175;49.326;12.690;2024-01-10T13:06:01;6.90;36.40
16140;DHT22;8175;49.326;12.690;2024-01-10T13:08:27;6.70;37.00
16140;DHT22;8175;49.326;12.690;2024-01-10T13:10:52;7.00;37.20
16140;DHT22;8175;49.326;12.690;2024-01-10T13:13:19;7.30;36.30
16140;DHT22;8175;49.326;12.690;2024-01-10T13:15:48;7.40;35.10
16140;DHT22;8175;49.326;12.690;2024-01-10T13:18:14;7.10;36.90
16140;DHT22;8175;49.326;12.690;2024-01-10T13:20:41;7.10;36.50
16140;DHT22;8175;49.326;12.690;2024-01-10T13:23:08;7.10;36.60
16140;DHT22;8175;49.326;12.690;2024-01-10T13:25:35;7.00;37.10
16140;DHT22;8175;49.326;12.690;2024-01-10T13:28:01;7.20;38.30
16140;DHT22;8175;49.326;12.690;2024-01-10T13:30:27;7.20;37.50
16140;DHT22;8175;49.326;12.690;2024-01-10T13:32:53;7.30;37.20
16140;DHT22;8175;49.326;12.690;2024-01-10T13:35:18;6.80;37.00
16140;DHT22;8175;49.326;12.690;2024-01-10T13:37:47;7.10;37.10
16140;DHT22;8175;49.326;12.690;2024-01-10T13:40:13;7.10;37.60
16140;DHT22;8175;49.326;12.690;2024-01-10T13:42:40;6.60;37.80
16140;DHT22;8175;49.326;12.690;2024-01-10T13:45:06;6.50;37.60
16140;DHT22;8175;49.326;12.690;2024-01-10T13:47:33;6.70;38.30
16140;DHT22;8175;49.326;12.690;2024-01-10T13:50:00;7.10;37.10
16140;DHT22;8175;49.326;12.690;2024-01-10T13:52:26;7.50;36.80
16140;DHT22;8175;49.326;12.690;2024-01-10T13:54:51;7.50;36.30
16140;DHT22;8175;49.326;12.690;2024-01-10T13:57:18;7.30;36.10
16140;DHT22;8175;49.326;12.690;2024-01-10T13:59:47;6.60;36.20
16140;DHT22;8175;49.326;12.690;2024-01-10T14:02:13;6.40;38.30
16140;DHT22;8175;49.326;12.690;2024-01-10T14:04:39;5.90;39.70
16140;DHT22;8175;49.326;12.690;2024-01-10T14:07:05;5.90;40.20
16140;DHT22;8175;49.326;12.690;2024-01-10T14:09:31;5.60;40.70
16140;DHT22;8175;49.326;12.690;2024-01-10T14:11:57;5.60;40.90
16140;DHT22;8175;49.326;12.690;2024-01-10T14:14:23;5.50;41.30
16140;DHT22;8175;49.326;12.690;2024-01-10T14:16:49;5.40;40.30
16140;DHT22;8175;49.326;12.690;2024-01-10T14:19:15;5.50;40.40
16140;DHT22;8175;49.326;12.690;2024-01-10T14:21:43;5.40;41.70
16140;DHT22;8175;49.326;12.690;2024-01-10T14:24:09;5.10;42.60
16140;DHT22;8175;49.326;12.690;2024-01-10T14:26:34;5.40;43.30
16140;DHT22;8175;49.326;12.690;2024-01-10T14:29:01;5.60;41.40
16140;DHT22;8175;49.326;12.690;2024-01-10T14:31:26;5.20;41.40
16140;DHT22;8175;49.326;12.690;2024-01-10T14:33:52;4.90;43.00
16140;DHT22;8175;49.326;12.690;2024-01-10T14:36:18;4.20;44.20
16140;DHT22;8175;49.326;12.690;2024-01-10T14:38:44;4.30;45.70
16140;DHT22;8175;49.326;12.690;2024-01-10T14:41:10;4.00;46.50
16140;DHT22;8175;49.326;12.690;2024-01-10T14:43:36;4.10;46.40
16140;DHT22;8175;49.326;12.690;2024-01-10T14:46:03;3.60;46.80
16140;DHT22;8175;49.326;12.690;2024-01-10T14:48:31;2.90;49.60
16140;DHT22;8175;49.326;12.690;2024-01-10T14:50:57;2.50;51.60
16140;DHT22;8175;49.326;12.690;2024-01-10T14:53:22;1.90;53.60
16140;DHT22;8175;49.326;12.690;2024-01-10T14:55:48;1.40;56.40
16140;DHT22;8175;49.326;12.690;2024-01-10T14:58:14;0.70;60.90
16140;DHT22;8175;49.326;12.690;2024-01-10T15:00:40;0.00;67.50
16140;DHT22;8175;49.326;12.690;2024-01-10T15:03:08;-0.50;75.80
16140;DHT22;8175;49.326;12.690;2024-01-10T15:05:34;-0.80;82.00
16140;DHT22;8175;49.326;12.690;2024-01-10T15:08:01;-1.10;88.70
16140;DHT22;8175;49.326;12.690;2024-01-10T15:10:27;-1.30;92.90
16140;DHT22;8175;49.326;12.690;2024-01-10T15:12:53;-1.70;97.60
16140;DHT22;8175;49.326;12.690;2024-01-10T15:15:18;-2.10;99.90
16140;DHT22;8175;49.326;12.690;2024-01-10T15:17:44;-2.40;99.90
16140;DHT22;8175;49.326;12.690;2024-01-10T15:20:10;-2.50;99.90
16140;DHT22;8175;49.326;12.690;2024-01-10T15:22:36;-2.50;99.90
16140;DHT22;8175;49.326;12.690;2024-01-10T15:25:05;-2.70;99.90
16140;DHT22;8175;49.326;12.690;2024-01-10T15:27:31;-2.90;99.90
16140;DHT22;8175;49.326;12.690;2024-01-10T15:29:56;-3.10;99.90
16140;DHT22;8175;49.326;12.690;2024-01-10T15:32:22;-3.30;99.90
16140;DHT22;8175;49.326;12.690;2024-01-10T15:34:47;-3.50;99.90
16140;DHT22;8175;49.326;12.690;2024-01-10T15:37:13;-3.60;99.90
16140;DHT22;8175;49.326;12.690;2024-01-10T15:39:40;-3.70;99.90
16140;DHT22;8175;49.326;12.690;2024-01-10T15:42:06;-3.70;99.90
16140;DHT22;8175;49.326;12.690;2024-01-10T15:44:32;-3.70;99.90
16140;DHT22;8175;49.326;12.690;2024-01-10T15:46:57;-3.80;99.90
16140;DHT22;8175;49.326;12.690;2024-01-10T15:49:23;-3.90;99.90
16140;DHT22;8175;49.326;12.690;2024-01-10T15:51:50;-4.00;99.90